sensor_id;sensor_type;location;lat;lon;timestamp;temperature;humidity
1830;DHT22;914;48.118;11.600;2022-11-20T00:00:44;9.10;99.10
1830;DHT22;914;48.118;11.600;2022-11-20T00:03:09;9.10;99.20
1830;DHT22;914;48.118;11.600;2022-11-20T00:05:35;9.00;99.30
1830;DHT22;914;48.118;11.600;2022-11-20T00:08:03;9.00;99.30
1830;DHT22;914;48.118;11.600;2022-11-20T00:10:29;9.00;99.50
1830;DHT22;914;48.118;11.600;2022-11-20T00:12:58;9.00;99.50
1830;DHT22;914;48.118;11.600;2022-11-20T00:15:24;9.10;99.20
1830;DHT22;914;48.118;11.600;2022-11-20T00:17:50;9.10;99.00
1830;DHT22;914;48.118;11.600;2022-11-20T00:20:16;9.10;98.70
1830;DHT22;914;48.118;11.600;2022-11-20T00:22:41;9.10;99.00
1830;DHT22;914;48.118;11.600;2022-11-20T00:25:08;9.00;99.20
1830;DHT22;914;48.118;11.600;2022-11-20T00:27:36;9.00;99.30
1830;DHT22;914;48.118;11.600;2022-11-20T00:30:03;9.20;99.10
1830;DHT22;914;48.118;11.600;2022-11-20T00:32:29;9.30;98.90
1830;DHT22;914;48.118;11.600;2022-11-20T00:34:55;9.40;98.50
1830;DHT22;914;48.118;11.600;2022-11-20T00:37:21;9.20;98.60
1830;DHT22;914;48.118;11.600;2022-11-20T00:39:47;9.00;99.30
1830;DHT22;914;48.118;11.600;2022-11-20T00:42:13;9.00;99.10
1830;DHT22;914;48.118;11.600;2022-11-20T00:44:42;9.00;99.10
1830;DHT22;914;48.118;11.600;2022-11-20T00:47:07;9.00;99.20
1830;DHT22;914;48.118;11.600;2022-11-20T00:49:33;8.90;99.50
1830;DHT22;914;48.118;11.600;2022-11-20T00:51:59;8.90;99.70
1830;DHT22;914;48.118;11.600;2022-11-20T00:54:24;8.80;99.90
1830;DHT22;914;48.118;11.600;2022-11-20T00:56:52;8.90;99.90
1830;DHT22;914;48.118;11.600;2022-11-20T00:59:21;9.10;99.20
1830;DHT22;914;48.118;11.600;2022-11-20T01:01:46;9.10;99.30
1830;DHT22;914;48.118;11.600;2022-11-20T01:04:13;9.10;99.50
1830;DHT22;914;48.118;11.600;2022-11-20T01:06:39;9.10;99.60
1830;DHT22;914;48.118;11.600;2022-11-20T01:09:12;9.10;99.40
1830;DHT22;914;48.118;11.600;2022-11-20T01:11:41;9.10;99.20
1830;DHT22;914;48.118;11.600;2022-11-20T01:14:16;9.20;99.40
1830;DHT22;914;48.118;11.600;2022-11-20T01:16:45;9.20;99.30
1830;DHT22;914;48.118;11.600;2022-11-20T01:19:14;9.20;99.30
1830;DHT22;914;48.118;11.600;2022-11-20T01:21:42;9.20;99.10
1830;DHT22;914;48.118;11.600;2022-11-20T01:24:12;9.20;98.80
1830;DHT22;914;48.118;11.600;2022-11-20T01:26:40;9.10;98.70
1830;DHT22;914;48.118;11.600;2022-11-20T01:29:09;9.00;98.90
1830;DHT22;914;48.118;11.600;2022-11-20T01:31:38;9.00;99.20
1830;DHT22;914;48.118;11.600;2022-11-20T01:34:06;8.90;99.10
1830;DHT22;914;48.118;11.600;2022-11-20T01:36:32;9.10;99.30
1830;DHT22;914;48.118;11.600;2022-11-20T01:39:00;9.10;99.00
1830;DHT22;914;48.118;11.600;2022-11-20T01:41:28;9.00;99.20
1830;DHT22;914;48.118;11.600;2022-11-20T01:44:14;9.00;99.10
1830;DHT22;914;48.118;11.600;2022-11-20T01:46:58;9.00;99.20
1830;DHT22;914;48.118;11.600;2022-11-20T01:49:39;9.00;99.20
1830;DHT22;914;48.118;11.600;2022-11-20T01:52:13;9.00;98.90
1830;DHT22;914;48.118;11.600;2022-11-20T01:57:17;8.90;99.30
1830;DHT22;914;48.118;11.600;2022-11-20T01:59:54;9.00;99.20
1830;DHT22;914;48.118;11.600;2022-11-20T02:02:21;9.00;99.20
1830;DHT22;914;48.118;11.600;2022-11-20T02:04:48;8.90;99.30
1830;DHT22;914;48.118;11.600;2022-11-20T02:07:14;8.90;99.30
1830;DHT22;914;48.118;11.600;2022-11-20T02:09:41;8.90;99.20
1830;DHT22;914;48.118;11.600;2022-11-20T02:12:07;8.90;99.40
1830;DHT22;914;48.118;11.600;2022-11-20T02:14:52;9.00;99.40
1830;DHT22;914;48.118;11.600;2022-11-20T02:17:18;8.90;99.30
1830;DHT22;914;48.118;11.600;2022-11-20T02:19:43;8.80;99.20
1830;DHT22;914;48.118;11.600;2022-11-20T02:22:28;8.90;99.10
1830;DHT22;914;48.118;11.600;2022-11-20T02:24:56;9.10;99.10
1830;DHT22;914;48.118;11.600;2022-11-20T02:27:24;9.30;98.40
1830;DHT22;914;48.118;11.600;2022-11-20T02:29:53;8.90;98.80
1830;DHT22;914;48.118;11.600;2022-11-20T02:32:26;8.90;98.80
1830;DHT22;914;48.118;11.600;2022-11-20T02:34:53;8.90;99.20
1830;DHT22;914;48.118;11.600;2022-11-20T02:37:19;8.80;99.20
1830;DHT22;914;48.118;11.600;2022-11-20T02:39:50;8.90;99.10
1830;DHT22;914;48.118;11.600;2022-11-20T02:42:17;8.90;98.80
1830;DHT22;914;48.118;11.600;2022-11-20T02:44:43;8.80;99.20
1830;DHT22;914;48.118;11.600;2022-11-20T02:47:09;8.70;99.00
1830;DHT22;914;48.118;11.600;2022-11-20T02:49:35;8.70;99.30
1830;DHT22;914;48.118;11.600;2022-11-20T02:52:04;8.90;98.60
1830;DHT22;914;48.118;11.600;2022-11-20T02:54:30;8.80;98.90
1830;DHT22;914;48.118;11.600;2022-11-20T02:56:56;9.00;99.10
1830;DHT22;914;48.118;11.600;2022-11-20T02:59:22;9.20;98.60
1830;DHT22;914;48.118;11.600;2022-11-20T03:01:47;9.00;98.20
1830;DHT22;914;48.118;11.600;2022-11-20T03:04:13;8.90;98.50
1830;DHT22;914;48.118;11.600;2022-11-20T03:06:39;9.00;98.80
1830;DHT22;914;48.118;11.600;2022-11-20T03:09:05;9.30;98.40
1830;DHT22;914;48.118;11.600;2022-11-20T03:11:30;9.40;97.80
1830;DHT22;914;48.118;11.600;2022-11-20T03:13:56;9.10;97.90
1830;DHT22;914;48.118;11.600;2022-11-20T03:16:22;8.90;98.40
1830;DHT22;914;48.118;11.600;2022-11-20T03:18:49;8.90;98.60
1830;DHT22;914;48.118;11.600;2022-11-20T03:21:15;8.90;98.80
1830;DHT22;914;48.118;11.600;2022-11-20T03:23:41;8.70;98.60
1830;DHT22;914;48.118;11.600;2022-11-20T03:26:19;8.90;98.60
1830;DHT22;914;48.118;11.600;2022-11-20T03:29:00;8.80;98.60
1830;DHT22;914;48.118;11.600;2022-11-20T03:31:28;9.10;97.90
1830;DHT22;914;48.118;11.600;2022-11-20T03:33:54;9.00;98.30
1830;DHT22;914;48.118;11.600;2022-11-20T03:36:21;8.90;98.40
1830;DHT22;914;48.118;11.600;2022-11-20T03:38:48;8.90;98.50
1830;DHT22;914;48.118;11.600;2022-11-20T03:41:22;9.00;98.00
1830;DHT22;914;48.118;11.600;2022-11-20T03:43:53;9.00;98.30
1830;DHT22;914;48.118;11.600;2022-11-20T03:46:22;8.90;98.00
1830;DHT22;914;48.118;11.600;2022-11-20T03:48:48;9.00;97.70
1830;DHT22;914;48.118;11.600;2022-11-20T03:51:16;8.80;97.90
1830;DHT22;914;48.118;11.600;2022-11-20T03:53:44;8.90;97.80
1830;DHT22;914;48.118;11.600;2022-11-20T03:56:11;9.00;97.70
1830;DHT22;914;48.118;11.600;2022-11-20T03:58:40;9.20;97.40
1830;DHT22;914;48.118;11.600;2022-11-20T04:01:12;9.20;97.10
1830;DHT22;914;48.118;11.600;2022-11-20T04:03:39;9.10;97.30
1830;DHT22;914;48.118;11.600;2022-11-20T04:06:07;8.80;97.60
1830;DHT22;914;48.118;11.600;2022-11-20T04:08:33;8.80;97.70
1830;DHT22;914;48.118;11.600;2022-11-20T04:11:33;9.00;97.60
1830;DHT22;914;48.118;11.600;2022-11-20T04:14:01;8.90;97.20
1830;DHT22;914;48.118;11.600;2022-11-20T04:16:29;9.10;96.80
1830;DHT22;914;48.118;11.600;2022-11-20T04:18:57;9.00;96.80
1830;DHT22;914;48.118;11.600;2022-11-20T04:21:38;8.80;97.20
1830;DHT22;914;48.118;11.600;2022-11-20T04:24:16;8.80;97.20
1830;DHT22;914;48.118;11.600;2022-11-20T04:26:49;9.00;97.70
1830;DHT22;914;48.118;11.600;2022-11-20T04:29:17;9.10;97.10
1830;DHT22;914;48.118;11.600;2022-11-20T04:31:43;8.80;97.20
1830;DHT22;914;48.118;11.600;2022-11-20T04:34:11;8.80;97.50
1830;DHT22;914;48.118;11.600;2022-11-20T04:36:37;8.90;97.30
1830;DHT22;914;48.118;11.600;2022-11-20T04:39:05;8.80;97.40
1830;DHT22;914;48.118;11.600;2022-11-20T04:41:33;8.70;97.50
1830;DHT22;914;48.118;11.600;2022-11-20T04:44:01;8.70;97.40
1830;DHT22;914;48.118;11.600;2022-11-20T04:46:32;8.70;97.70
1830;DHT22;914;48.118;11.600;2022-11-20T04:48:59;8.70;97.90
1830;DHT22;914;48.118;11.600;2022-11-20T04:51:25;9.00;97.10
1830;DHT22;914;48.118;11.600;2022-11-20T04:53:51;9.00;96.80
1830;DHT22;914;48.118;11.600;2022-11-20T04:56:17;9.00;97.00
1830;DHT22;914;48.118;11.600;2022-11-20T04:58:42;8.90;97.20
1830;DHT22;914;48.118;11.600;2022-11-20T05:01:14;8.80;97.30
1830;DHT22;914;48.118;11.600;2022-11-20T05:03:41;8.90;97.10
1830;DHT22;914;48.118;11.600;2022-11-20T05:06:07;9.10;96.90
1830;DHT22;914;48.118;11.600;2022-11-20T05:08:34;8.90;97.30
1830;DHT22;914;48.118;11.600;2022-11-20T05:11:15;8.80;97.20
1830;DHT22;914;48.118;11.600;2022-11-20T05:13:42;8.70;97.10
1830;DHT22;914;48.118;11.600;2022-11-20T05:16:10;8.80;97.20
1830;DHT22;914;48.118;11.600;2022-11-20T05:18:36;8.90;97.00
1830;DHT22;914;48.118;11.600;2022-11-20T05:21:03;8.90;97.10
1830;DHT22;914;48.118;11.600;2022-11-20T05:23:30;8.90;96.90
1830;DHT22;914;48.118;11.600;2022-11-20T05:25:57;8.70;97.30
1830;DHT22;914;48.118;11.600;2022-11-20T05:28:23;8.60;97.80
1830;DHT22;914;48.118;11.600;2022-11-20T05:30:49;8.70;97.30
1830;DHT22;914;48.118;11.600;2022-11-20T05:33:16;8.60;97.40
1830;DHT22;914;48.118;11.600;2022-11-20T05:35:42;9.10;97.00
1830;DHT22;914;48.118;11.600;2022-11-20T05:38:08;8.90;97.00
1830;DHT22;914;48.118;11.600;2022-11-20T05:40:34;8.80;97.00
1830;DHT22;914;48.118;11.600;2022-11-20T05:43:00;8.80;96.90
1830;DHT22;914;48.118;11.600;2022-11-20T05:45:25;9.00;96.60
1830;DHT22;914;48.118;11.600;2022-11-20T05:47:51;8.80;96.90
1830;DHT22;914;48.118;11.600;2022-11-20T05:50:17;8.80;97.00
1830;DHT22;914;48.118;11.600;2022-11-20T05:52:42;8.80;97.10
1830;DHT22;914;48.118;11.600;2022-11-20T05:55:08;8.90;96.80
1830;DHT22;914;48.118;11.600;2022-11-20T05:57:34;8.70;96.80
1830;DHT22;914;48.118;11.600;2022-11-20T06:00:00;8.80;96.80
1830;DHT22;914;48.118;11.600;2022-11-20T06:02:25;8.80;96.70
1830;DHT22;914;48.118;11.600;2022-11-20T06:04:51;8.70;97.00
1830;DHT22;914;48.118;11.600;2022-11-20T06:07:16;8.60;97.00
1830;DHT22;914;48.118;11.600;2022-11-20T06:09:42;8.60;97.20
1830;DHT22;914;48.118;11.600;2022-11-20T06:12:08;8.70;97.20
1830;DHT22;914;48.118;11.600;2022-11-20T06:14:34;8.90;96.90
1830;DHT22;914;48.118;11.600;2022-11-20T06:17:00;8.80;96.80
1830;DHT22;914;48.118;11.600;2022-11-20T06:19:25;8.70;96.90
1830;DHT22;914;48.118;11.600;2022-11-20T06:21:51;8.60;97.00
1830;DHT22;914;48.118;11.600;2022-11-20T06:24:17;8.70;96.80
1830;DHT22;914;48.118;11.600;2022-11-20T06:26:43;8.60;96.70
1830;DHT22;914;48.118;11.600;2022-11-20T06:29:10;8.50;96.70
1830;DHT22;914;48.118;11.600;2022-11-20T06:31:36;8.80;96.80
1830;DHT22;914;48.118;11.600;2022-11-20T06:34:05;8.90;96.00
1830;DHT22;914;48.118;11.600;2022-11-20T06:36:32;8.70;96.20
1830;DHT22;914;48.118;11.600;2022-11-20T06:38:58;8.50;96.30
1830;DHT22;914;48.118;11.600;2022-11-20T06:41:24;8.50;96.20
1830;DHT22;914;48.118;11.600;2022-11-20T06:43:51;8.40;96.30
1830;DHT22;914;48.118;11.600;2022-11-20T06:46:18;8.40;96.10
1830;DHT22;914;48.118;11.600;2022-11-20T06:48:44;8.50;96.30
1830;DHT22;914;48.118;11.600;2022-11-20T06:51:10;8.40;96.30
1830;DHT22;914;48.118;11.600;2022-11-20T06:53:36;8.30;96.10
1830;DHT22;914;48.118;11.600;2022-11-20T06:56:04;8.40;96.10
1830;DHT22;914;48.118;11.600;2022-11-20T06:58:32;8.40;96.10
1830;DHT22;914;48.118;11.600;2022-11-20T07:00:59;8.40;95.90
1830;DHT22;914;48.118;11.600;2022-11-20T07:03:25;8.30;95.80
1830;DHT22;914;48.118;11.600;2022-11-20T07:05:50;8.70;95.80
1830;DHT22;914;48.118;11.600;2022-11-20T07:08:16;8.60;95.50
1830;DHT22;914;48.118;11.600;2022-11-20T07:10:41;8.50;95.60
1830;DHT22;914;48.118;11.600;2022-11-20T07:13:10;8.50;95.60
1830;DHT22;914;48.118;11.600;2022-11-20T07:15:36;8.60;95.70
1830;DHT22;914;48.118;11.600;2022-11-20T07:18:01;8.60;95.70
1830;DHT22;914;48.118;11.600;2022-11-20T07:20:28;8.80;95.80
1830;DHT22;914;48.118;11.600;2022-11-20T07:22:55;9.10;95.90
1830;DHT22;914;48.118;11.600;2022-11-20T07:25:22;9.30;95.00
1830;DHT22;914;48.118;11.600;2022-11-20T07:27:47;9.10;94.80
1830;DHT22;914;48.118;11.600;2022-11-20T07:30:14;9.10;94.80
1830;DHT22;914;48.118;11.600;2022-11-20T07:32:45;8.80;95.60
1830;DHT22;914;48.118;11.600;2022-11-20T07:35:11;8.80;95.70
1830;DHT22;914;48.118;11.600;2022-11-20T07:37:39;8.60;95.90
1830;DHT22;914;48.118;11.600;2022-11-20T07:40:04;8.40;96.40
1830;DHT22;914;48.118;11.600;2022-11-20T07:42:30;8.70;96.70
1830;DHT22;914;48.118;11.600;2022-11-20T07:44:56;8.50;95.80
1830;DHT22;914;48.118;11.600;2022-11-20T07:47:21;8.60;95.90
1830;DHT22;914;48.118;11.600;2022-11-20T07:49:47;8.90;95.90
1830;DHT22;914;48.118;11.600;2022-11-20T07:52:15;8.90;95.40
1830;DHT22;914;48.118;11.600;2022-11-20T07:54:41;8.80;95.00
1830;DHT22;914;48.118;11.600;2022-11-20T07:57:07;8.50;95.70
1830;DHT22;914;48.118;11.600;2022-11-20T07:59:33;8.70;95.40
1830;DHT22;914;48.118;11.600;2022-11-20T08:01:58;8.90;95.20
1830;DHT22;914;48.118;11.600;2022-11-20T08:04:24;8.70;95.30
1830;DHT22;914;48.118;11.600;2022-11-20T08:06:52;8.90;95.10
1830;DHT22;914;48.118;11.600;2022-11-20T08:09:17;8.70;95.40
1830;DHT22;914;48.118;11.600;2022-11-20T08:11:43;8.70;95.60
1830;DHT22;914;48.118;11.600;2022-11-20T08:14:27;9.10;95.10
1830;DHT22;914;48.118;11.600;2022-11-20T08:16:53;8.80;95.10
1830;DHT22;914;48.118;11.600;2022-11-20T08:19:19;9.10;94.90
1830;DHT22;914;48.118;11.600;2022-11-20T08:21:45;8.80;94.90
1830;DHT22;914;48.118;11.600;2022-11-20T08:24:11;8.70;95.00
1830;DHT22;914;48.118;11.600;2022-11-20T08:26:38;8.70;95.50
1830;DHT22;914;48.118;11.600;2022-11-20T08:29:05;8.90;94.90
1830;DHT22;914;48.118;11.600;2022-11-20T08:31:33;8.90;94.90
1830;DHT22;914;48.118;11.600;2022-11-20T08:33:59;8.90;95.20
1830;DHT22;914;48.118;11.600;2022-11-20T08:36:25;8.80;94.80
1830;DHT22;914;48.118;11.600;2022-11-20T08:38:53;8.90;94.60
1830;DHT22;914;48.118;11.600;2022-11-20T08:41:20;9.20;94.30
1830;DHT22;914;48.118;11.600;2022-11-20T08:43:50;9.00;94.40
1830;DHT22;914;48.118;11.600;2022-11-20T08:46:16;8.90;94.70
1830;DHT22;914;48.118;11.600;2022-11-20T08:48:42;9.00;94.40
1830;DHT22;914;48.118;11.600;2022-11-20T08:51:09;9.00;94.30
1830;DHT22;914;48.118;11.600;2022-11-20T08:53:35;9.00;94.50
1830;DHT22;914;48.118;11.600;2022-11-20T08:56:00;9.20;94.20
1830;DHT22;914;48.118;11.600;2022-11-20T08:58:26;9.70;93.10
1830;DHT22;914;48.118;11.600;2022-11-20T09:00:52;9.40;93.50
1830;DHT22;914;48.118;11.600;2022-11-20T09:03:18;9.40;93.50
1830;DHT22;914;48.118;11.600;2022-11-20T09:05:44;9.50;93.20
1830;DHT22;914;48.118;11.600;2022-11-20T09:08:10;9.40;93.60
1830;DHT22;914;48.118;11.600;2022-11-20T09:10:36;9.40;93.70
1830;DHT22;914;48.118;11.600;2022-11-20T09:13:05;9.40;93.50
1830;DHT22;914;48.118;11.600;2022-11-20T09:15:31;9.30;93.60
1830;DHT22;914;48.118;11.600;2022-11-20T09:18:02;9.30;93.90
1830;DHT22;914;48.118;11.600;2022-11-20T09:20:29;9.10;93.90
1830;DHT22;914;48.118;11.600;2022-11-20T09:22:55;9.10;93.60
1830;DHT22;914;48.118;11.600;2022-11-20T09:25:21;9.40;93.40
1830;DHT22;914;48.118;11.600;2022-11-20T09:27:47;9.60;93.20
1830;DHT22;914;48.118;11.600;2022-11-20T09:30:14;9.60;92.70
1830;DHT22;914;48.118;11.600;2022-11-20T09:32:40;9.60;93.10
1830;DHT22;914;48.118;11.600;2022-11-20T09:35:06;9.80;92.80
1830;DHT22;914;48.118;11.600;2022-11-20T09:37:32;10.00;92.20
1830;DHT22;914;48.118;11.600;2022-11-20T09:39:58;10.00;91.60
1830;DHT22;914;48.118;11.600;2022-11-20T09:47:57;9.70;92.20
1830;DHT22;914;48.118;11.600;2022-11-20T09:53:20;9.60;92.30
1830;DHT22;914;48.118;11.600;2022-11-20T09:55:49;9.70;92.70
1830;DHT22;914;48.118;11.600;2022-11-20T09:58:40;9.80;92.50
1830;DHT22;914;48.118;11.600;2022-11-20T10:01:22;10.20;91.20
1830;DHT22;914;48.118;11.600;2022-11-20T10:09:19;10.20;91.10
1830;DHT22;914;48.118;11.600;2022-11-20T10:14:52;11.00;90.50
1830;DHT22;914;48.118;11.600;2022-11-20T10:20:02;10.80;90.40
1830;DHT22;914;48.118;11.600;2022-11-20T10:23:07;10.90;90.10
1830;DHT22;914;48.118;11.600;2022-11-20T10:25:43;11.00;90.20
1830;DHT22;914;48.118;11.600;2022-11-20T10:28:36;11.30;89.00
1830;DHT22;914;48.118;11.600;2022-11-20T10:31:08;10.80;89.70
1830;DHT22;914;48.118;11.600;2022-11-20T10:33:41;11.10;89.40
1830;DHT22;914;48.118;11.600;2022-11-20T10:36:15;11.10;90.30
1830;DHT22;914;48.118;11.600;2022-11-20T10:41:38;11.10;90.00
1830;DHT22;914;48.118;11.600;2022-11-20T10:44:15;11.40;90.30
1830;DHT22;914;48.118;11.600;2022-11-20T10:47:04;11.20;88.80
1830;DHT22;914;48.118;11.600;2022-11-20T10:49:33;11.30;88.40
1830;DHT22;914;48.118;11.600;2022-11-20T10:55:08;11.10;88.30
1830;DHT22;914;48.118;11.600;2022-11-20T10:58:14;10.70;86.70
1830;DHT22;914;48.118;11.600;2022-11-20T11:00:40;10.90;87.80
1830;DHT22;914;48.118;11.600;2022-11-20T11:05:53;10.80;88.60
1830;DHT22;914;48.118;11.600;2022-11-20T11:08:21;10.80;88.40
1830;DHT22;914;48.118;11.600;2022-11-20T11:10:59;10.60;89.30
1830;DHT22;914;48.118;11.600;2022-11-20T11:13:29;10.50;89.30
1830;DHT22;914;48.118;11.600;2022-11-20T11:15:55;10.60;88.80
1830;DHT22;914;48.118;11.600;2022-11-20T11:18:30;10.70;90.10
1830;DHT22;914;48.118;11.600;2022-11-20T11:20:57;10.60;89.80
1830;DHT22;914;48.118;11.600;2022-11-20T11:23:40;10.50;90.00
1830;DHT22;914;48.118;11.600;2022-11-20T11:26:40;10.60;89.70
1830;DHT22;914;48.118;11.600;2022-11-20T11:29:01;10.70;89.50
1830;DHT22;914;48.118;11.600;2022-11-20T11:31:33;10.60;88.80
1830;DHT22;914;48.118;11.600;2022-11-20T11:34:16;10.90;90.40
1830;DHT22;914;48.118;11.600;2022-11-20T11:36:55;11.00;90.20
1830;DHT22;914;48.118;11.600;2022-11-20T11:39:21;11.30;89.60
1830;DHT22;914;48.118;11.600;2022-11-20T11:41:47;11.10;88.90
1830;DHT22;914;48.118;11.600;2022-11-20T11:44:18;11.00;88.60
1830;DHT22;914;48.118;11.600;2022-11-20T11:47:04;10.90;88.70
1830;DHT22;914;48.118;11.600;2022-11-20T11:49:30;11.10;88.60
1830;DHT22;914;48.118;11.600;2022-11-20T11:52:16;10.90;88.40
1830;DHT22;914;48.118;11.600;2022-11-20T11:54:53;10.70;89.30
1830;DHT22;914;48.118;11.600;2022-11-20T11:57:39;10.90;88.40
1830;DHT22;914;48.118;11.600;2022-11-20T12:00:13;10.90;88.60
1830;DHT22;914;48.118;11.600;2022-11-20T12:08:36;11.40;88.90
1830;DHT22;914;48.118;11.600;2022-11-20T12:14:07;10.90;89.30
1830;DHT22;914;48.118;11.600;2022-11-20T12:16:37;10.70;89.20
1830;DHT22;914;48.118;11.600;2022-11-20T12:19:11;10.40;90.20
1830;DHT22;914;48.118;11.600;2022-11-20T12:22:28;10.10;91.50
1830;DHT22;914;48.118;11.600;2022-11-20T12:25:26;10.10;92.60
1830;DHT22;914;48.118;11.600;2022-11-20T12:28:20;9.90;92.80
1830;DHT22;914;48.118;11.600;2022-11-20T12:34:16;10.20;92.40
1830;DHT22;914;48.118;11.600;2022-11-20T12:37:28;10.00;92.80
1830;DHT22;914;48.118;11.600;2022-11-20T12:39:49;9.90;93.80
1830;DHT22;914;48.118;11.600;2022-11-20T12:42:34;10.00;93.20
1830;DHT22;914;48.118;11.600;2022-11-20T12:45:34;10.20;93.90
1830;DHT22;914;48.118;11.600;2022-11-20T12:48:10;10.60;93.30
1830;DHT22;914;48.118;11.600;2022-11-20T12:50:49;10.20;92.50
1830;DHT22;914;48.118;11.600;2022-11-20T13:02:58;9.90;94.00
1830;DHT22;914;48.118;11.600;2022-11-20T13:08:19;9.90;93.90
1830;DHT22;914;48.118;11.600;2022-11-20T13:13:39;9.80;94.80
1830;DHT22;914;48.118;11.600;2022-11-20T13:16:33;10.10;93.20
1830;DHT22;914;48.118;11.600;2022-11-20T13:19:03;9.80;94.10
1830;DHT22;914;48.118;11.600;2022-11-20T13:21:41;9.90;94.10
1830;DHT22;914;48.118;11.600;2022-11-20T13:26:45;10.10;93.70
1830;DHT22;914;48.118;11.600;2022-11-20T13:29:16;9.90;94.50
1830;DHT22;914;48.118;11.600;2022-11-20T13:31:44;9.50;95.10
1830;DHT22;914;48.118;11.600;2022-11-20T13:34:14;9.20;95.60
1830;DHT22;914;48.118;11.600;2022-11-20T13:36:57;9.20;95.40
1830;DHT22;914;48.118;11.600;2022-11-20T13:39:30;9.30;95.50
1830;DHT22;914;48.118;11.600;2022-11-20T13:42:01;9.50;95.70
1830;DHT22;914;48.118;11.600;2022-11-20T13:44:39;9.30;95.40
1830;DHT22;914;48.118;11.600;2022-11-20T13:47:22;9.40;95.50
1830;DHT22;914;48.118;11.600;2022-11-20T13:49:48;9.40;95.60
1830;DHT22;914;48.118;11.600;2022-11-20T13:57:57;9.60;95.60
1830;DHT22;914;48.118;11.600;2022-11-20T14:00:25;9.50;95.40
1830;DHT22;914;48.118;11.600;2022-11-20T14:03:10;9.50;94.80
1830;DHT22;914;48.118;11.600;2022-11-20T14:05:50;9.50;95.30
1830;DHT22;914;48.118;11.600;2022-11-20T14:08:41;9.50;95.00
1830;DHT22;914;48.118;11.600;2022-11-20T14:11:17;9.90;94.50
1830;DHT22;914;48.118;11.600;2022-11-20T14:14:15;10.00;93.70
1830;DHT22;914;48.118;11.600;2022-11-20T14:16:41;9.60;94.80
1830;DHT22;914;48.118;11.600;2022-11-20T14:21:52;9.80;94.20
1830;DHT22;914;48.118;11.600;2022-11-20T14:24:23;9.80;94.10
1830;DHT22;914;48.118;11.600;2022-11-20T14:26:50;9.60;94.90
1830;DHT22;914;48.118;11.600;2022-11-20T14:29:21;9.70;94.60
1830;DHT22;914;48.118;11.600;2022-11-20T14:31:52;9.90;94.60
1830;DHT22;914;48.118;11.600;2022-11-20T14:34:25;10.00;93.80
1830;DHT22;914;48.118;11.600;2022-11-20T14:37:03;9.90;94.40
1830;DHT22;914;48.118;11.600;2022-11-20T14:39:34;9.90;94.30
1830;DHT22;914;48.118;11.600;2022-11-20T14:42:01;9.90;94.10
1830;DHT22;914;48.118;11.600;2022-11-20T14:44:32;9.70;94.30
1830;DHT22;914;48.118;11.600;2022-11-20T14:47:00;9.60;94.60
1830;DHT22;914;48.118;11.600;2022-11-20T14:49:29;9.80;94.20
1830;DHT22;914;48.118;11.600;2022-11-20T14:52:01;10.00;93.10
1830;DHT22;914;48.118;11.600;2022-11-20T14:54:27;9.50;94.60
1830;DHT22;914;48.118;11.600;2022-11-20T14:57:02;9.70;94.40
1830;DHT22;914;48.118;11.600;2022-11-20T14:59:30;10.10;93.20
1830;DHT22;914;48.118;11.600;2022-11-20T15:02:03;9.80;93.70
1830;DHT22;914;48.118;11.600;2022-11-20T15:04:30;9.70;93.20
1830;DHT22;914;48.118;11.600;2022-11-20T15:06:59;9.80;93.40
1830;DHT22;914;48.118;11.600;2022-11-20T15:09:25;9.80;93.20
1830;DHT22;914;48.118;11.600;2022-11-20T15:11:57;9.80;93.10
1830;DHT22;914;48.118;11.600;2022-11-20T15:14:24;9.30;93.30
1830;DHT22;914;48.118;11.600;2022-11-20T15:16:50;9.20;94.00
1830;DHT22;914;48.118;11.600;2022-11-20T15:19:21;9.20;94.10
1830;DHT22;914;48.118;11.600;2022-11-20T15:21:47;9.20;94.10
1830;DHT22;914;48.118;11.600;2022-11-20T15:24:13;9.50;93.50
1830;DHT22;914;48.118;11.600;2022-11-20T15:26:39;9.70;93.20
1830;DHT22;914;48.118;11.600;2022-11-20T15:29:09;9.80;93.80
1830;DHT22;914;48.118;11.600;2022-11-20T15:31:36;9.70;92.90
1830;DHT22;914;48.118;11.600;2022-11-20T15:34:01;9.60;93.40
1830;DHT22;914;48.118;11.600;2022-11-20T15:36:27;9.60;93.30
1830;DHT22;914;48.118;11.600;2022-11-20T15:38:53;9.60;93.40
1830;DHT22;914;48.118;11.600;2022-11-20T15:41:18;9.50;93.60
1830;DHT22;914;48.118;11.600;2022-11-20T15:43:44;9.40;93.90
1830;DHT22;914;48.118;11.600;2022-11-20T15:46:15;9.40;93.60
1830;DHT22;914;48.118;11.600;2022-11-20T15:48:51;9.20;93.60
1830;DHT22;914;48.118;11.600;2022-11-20T15:51:29;9.20;93.80
1830;DHT22;914;48.118;11.600;2022-11-20T15:53:56;9.40;93.50
1830;DHT22;914;48.118;11.600;2022-11-20T15:56:22;9.50;93.60
1830;DHT22;914;48.118;11.600;2022-11-20T15:58:48;9.40;93.50
1830;DHT22;914;48.118;11.600;2022-11-20T16:01:16;9.20;94.00
1830;DHT22;914;48.118;11.600;2022-11-20T16:03:44;9.30;94.30
1830;DHT22;914;48.118;11.600;2022-11-20T16:06:09;9.30;94.00
1830;DHT22;914;48.118;11.600;2022-11-20T16:08:35;9.20;94.00
1830;DHT22;914;48.118;11.600;2022-11-20T16:11:01;9.20;93.80
1830;DHT22;914;48.118;11.600;2022-11-20T16:13:27;9.30;93.60
1830;DHT22;914;48.118;11.600;2022-11-20T16:16:35;9.00;94.20
1830;DHT22;914;48.118;11.600;2022-11-20T16:19:01;9.20;93.80
1830;DHT22;914;48.118;11.600;2022-11-20T16:21:27;9.00;94.40
1830;DHT22;914;48.118;11.600;2022-11-20T16:24:03;9.10;94.10
1830;DHT22;914;48.118;11.600;2022-11-20T16:26:30;9.00;94.40
1830;DHT22;914;48.118;11.600;2022-11-20T16:28:57;8.90;94.40
1830;DHT22;914;48.118;11.600;2022-11-20T16:31:23;9.10;94.50
1830;DHT22;914;48.118;11.600;2022-11-20T16:33:50;9.00;94.40
1830;DHT22;914;48.118;11.600;2022-11-20T16:36:17;8.80;94.60
1830;DHT22;914;48.118;11.600;2022-11-20T16:38:43;9.10;94.40
1830;DHT22;914;48.118;11.600;2022-11-20T16:41:12;9.20;94.30
1830;DHT22;914;48.118;11.600;2022-11-20T16:43:45;9.20;94.10
1830;DHT22;914;48.118;11.600;2022-11-20T16:46:15;9.30;94.10
1830;DHT22;914;48.118;11.600;2022-11-20T16:48:41;9.20;94.30
1830;DHT22;914;48.118;11.600;2022-11-20T16:51:09;9.10;94.00
1830;DHT22;914;48.118;11.600;2022-11-20T16:53:35;8.80;94.30
1830;DHT22;914;48.118;11.600;2022-11-20T16:56:12;8.80;94.70
1830;DHT22;914;48.118;11.600;2022-11-20T16:58:40;8.60;95.00
1830;DHT22;914;48.118;11.600;2022-11-20T17:01:10;8.60;95.10
1830;DHT22;914;48.118;11.600;2022-11-20T17:03:38;8.70;95.00
1830;DHT22;914;48.118;11.600;2022-11-20T17:06:17;8.90;94.60
1830;DHT22;914;48.118;11.600;2022-11-20T17:08:44;8.80;94.60
1830;DHT22;914;48.118;11.600;2022-11-20T17:11:13;8.70;94.70
1830;DHT22;914;48.118;11.600;2022-11-20T17:13:39;8.70;94.90
1830;DHT22;914;48.118;11.600;2022-11-20T17:16:07;8.70;95.00
1830;DHT22;914;48.118;11.600;2022-11-20T17:18:33;8.60;95.20
1830;DHT22;914;48.118;11.600;2022-11-20T17:20:59;8.70;95.00
1830;DHT22;914;48.118;11.600;2022-11-20T17:23:33;8.60;94.90
1830;DHT22;914;48.118;11.600;2022-11-20T17:26:04;8.60;94.80
1830;DHT22;914;48.118;11.600;2022-11-20T17:28:30;8.50;95.20
1830;DHT22;914;48.118;11.600;2022-11-20T17:31:05;8.40;95.10
1830;DHT22;914;48.118;11.600;2022-11-20T17:33:36;8.50;95.20
1830;DHT22;914;48.118;11.600;2022-11-20T17:36:04;8.50;95.30
1830;DHT22;914;48.118;11.600;2022-11-20T17:38:30;8.50;95.30
1830;DHT22;914;48.118;11.600;2022-11-20T17:41:22;8.60;95.30